Westphalia, Michigan
Current Conditions -  °F | °C
As of 3:33 AM on Tuesday 27 Jan 2015 (Local Time) from KY70 Reporting Station
Overcast Overcast  
Wind Chill:   Ceiling: 7000
Heat Index: 18°   Visibility: 10mi
Dew Point: 13°   Wind: 7mph
Humidity: 83%   Direction: 70°ENE
Pressure: 29.99"   Gusts: NA
Location:  42.93°N, 84.8°W
Report Text: KY70 270833Z AUTO 07006KT 10SM OVC070 M08/M10 A2999 RMK AO2 T10801105
Loading
Personal Weather Stations






























Interactive Weather Map New forecast layout! Learn more

10-Day Weather Forecast

Advertisements
Track Severe Weather on mobile